Wind From: 20-09-2018 10:00 Until: 20:00 warning for: Wind Level: Yellow info button
suomi:
Tuulivaroitus maa-alueille: Lounaistuuli on voimakasta iltapäivällä ja illalla, tuulen nopeus puuskissa 15 m/s.

svenska:
Vindvarning för landområden: På eftermiddagen och kvällen är den sydvästliga vinden kraftigt, i vindbyarna 15 m/s.

english:
Wind warning for land areas: In the afternoon and in the evening, strong winds from southwest may bring strong gusts of 15 m/s. 


Thunder radar more information blitzortung!


Löydät sääaseman tiedot myös:

European Weather Network

Finland Weather Exchange

Weather Underground

AWEKAS



Weather Underground säähistoriasivu

Päivittäin yhteenveto Tammikuu 16, 2017 Yksiköt:  Molemmat    Englantilaiset   Metriset
« Edellinen Päivä
Seuraava Päivä »
Päivittäin Viikoittain Kuukausittain Vuosittain Mukautettu
  Korkea: Matala: Keskiarvo:
Lämpötila: TemperatureC °F /  -17.8 °C -10.7 °F /  -23.7 °C -4.8 °F /  -20.4 °C
Kastepiste: DewpointC °F /  -17.8 °C -11.7 °F /  -24.3 °C -5.5 °F /  -20.8 °C
Kosteus: Humidity % 92 % 94 %
Tuulen nopeus: WindSpeedKMH mph /  0 km/h - 0.1 mph /  0.2 km/h
Tuulenpuuska: WindSpeedGustKMH mph /  0 km/h - -
Tuuli:- - NW
Ilmanpaine: PressurehPa in /  0 hPa 1011.1 in /  34235.8 hPa -
Sade: 0.0 in /  0 mm    
Historical Graphs
 
 
Taulukkotiedot Tammikuu 16, 2017
Aika Lämpötila Kastepiste Ilmanpaine Tuuli Tuulen nopeus Tuulenpuuska Kosteus Sademäärä (tunneittain)
TemperatureC °F /  -17.8 °C DewpointC °F /  -17.8 °C PressurehPa in /  0 hPa Calm     Humidity % HourlyPrecipMM in /  0 mm
00:00 -10.2 °F /  -23.4 °C -11.2 °F /  -24 °C 1011.1 in /  34235.8 hPa Calm     92 % 0.0 in /  0 mm
00:15 -10.3 °F /  -23.5 °C -11.3 °F /  -24.1 °C 1011.4 in /  34246 hPa Calm     92 % 0.0 in /  0 mm
00:30 -10.4 °F /  -23.6 °C -11.5 °F /  -24.2 °C 1011.7 in /  34256.2 hPa Calm     92 % 0.0 in /  0 mm
00:45 -10.4 °F /  -23.6 °C -11.5 °F /  -24.2 °C 1012.1 in /  34269.7 hPa Calm     92 % 0.0 in /  0 mm
01:00 -10.6 °F /  -23.7 °C -11.6 °F /  -24.2 °C 1012.4 in /  34279.9 hPa Calm     92 % 0.0 in /  0 mm
01:15 -10.7 °F /  -23.7 °C -11.7 °F /  -24.3 °C 1012.8 in /  34293.4 hPa Calm     92 % 0.0 in /  0 mm
01:30 -10.7 °F /  -23.7 °C -11.7 °F /  -24.3 °C 1013.1 in /  34303.6 hPa Calm     92 % 0.0 in /  0 mm
01:45 -10.4 °F /  -23.6 °C -11.3 °F /  -24.1 °C 1013.4 in /  34313.7 hPa Calm     93 % 0.0 in /  0 mm
02:00 -9.9 °F /  -23.3 °C -10.9 °F /  -23.8 °C 1013.4 in /  34313.7 hPa Calm     93 % 0.0 in /  0 mm
02:15 -9.8 °F /  -23.2 °C -10.7 °F /  -23.7 °C 1013.4 in /  34313.7 hPa Calm     93 % 0.0 in /  0 mm
02:30 -9.4 °F /  -23 °C -10.2 °F /  -23.4 °C 1013.8 in /  34327.3 hPa Calm     94 % 0.0 in /  0 mm
02:45 -9.0 °F /  -22.8 °C -9.8 °F /  -23.2 °C 1014.1 in /  34337.4 hPa Calm     94 % 0.0 in /  0 mm
03:00 -8.6 °F /  -22.6 °C -9.3 °F /  -22.9 °C 1014.4 in /  34347.6 hPa Calm     94 % 0.0 in /  0 mm
03:15 -8.2 °F /  -22.3 °C -9.0 °F /  -22.8 °C 1014.8 in /  34361.1 hPa Calm     94 % 0.0 in /  0 mm
03:30 -7.9 °F /  -22.2 °C -8.7 °F /  -22.6 °C 1014.8 in /  34361.1 hPa Calm     94 % 0.0 in /  0 mm
03:45 -7.6 °F /  -22 °C -8.4 °F /  -22.4 °C 1015.1 in /  34371.3 hPa Calm     94 % 0.0 in /  0 mm
04:00 -7.4 °F /  -21.9 °C -8.2 °F /  -22.3 °C 1015.1 in /  34371.3 hPa Calm     94 % 0.0 in /  0 mm
04:15 -7.2 °F /  -21.8 °C -8.0 °F /  -22.2 °C 1015.5 in /  34384.8 hPa Calm     94 % 0.0 in /  0 mm
04:30 -7.1 °F /  -21.7 °C -7.9 °F /  -22.2 °C 1015.5 in /  34384.8 hPa Calm     94 % 0.0 in /  0 mm
04:45 -6.8 °F /  -21.6 °C -7.4 °F /  -21.9 °C 1015.8 in /  34395 hPa Calm     95 % 0.0 in /  0 mm
05:00 -4.9 °F /  -20.5 °C -5.3 °F /  -20.7 °C 1015.8 in /  34395 hPa NNW 1.6 mph /  2.6 km/h 4.8 mph /  7.7 km/h 97 % 0.0 in /  0 mm
05:15 -4.3 °F /  -20.2 °C -4.8 °F /  -20.4 °C 1016.1 in /  34405.1 hPa Calm   3.2 mph /  5.1 km/h 96 % 0.0 in /  0 mm
05:30 -4.2 °F /  -20.1 °C -4.7 °F /  -20.4 °C 1016.5 in /  34418.7 hPa Calm   4.8 mph /  7.7 km/h 96 % 0.0 in /  0 mm
05:45 -4.1 °F /  -20.1 °C -4.8 °F /  -20.4 °C 1016.5 in /  34418.7 hPa Calm   3.2 mph /  5.1 km/h 95 % 0.0 in /  0 mm
06:00 -4.2 °F /  -20.1 °C -4.7 °F /  -20.4 °C 1016.8 in /  34428.8 hPa Calm     96 % 0.0 in /  0 mm
06:15 -4.2 °F /  -20.1 °C -4.9 °F /  -20.5 °C 1016.8 in /  34428.8 hPa Calm     95 % 0.0 in /  0 mm
06:30 -4.3 °F /  -20.2 °C -5.0 °F /  -20.6 °C 1017.5 in /  34452.6 hPa Calm     95 % 0.0 in /  0 mm
06:45 -4.3 °F /  -20.2 °C -5.0 °F /  -20.6 °C 1017.5 in /  34452.6 hPa Calm     95 % 0.0 in /  0 mm
07:00 -4.3 °F /  -20.2 °C -5.0 °F /  -20.6 °C 1017.8 in /  34462.7 hPa Calm     95 % 0.0 in /  0 mm
07:15 -4.3 °F /  -20.2 °C -5.0 °F /  -20.6 °C 1018.2 in /  34476.3 hPa Calm     95 % 0.0 in /  0 mm
07:30 -4.3 °F /  -20.2 °C -4.8 °F /  -20.4 °C 1018.5 in /  34486.4 hPa Calm     96 % 0.0 in /  0 mm
07:45 -4.2 °F /  -20.1 °C -4.8 °F /  -20.4 °C 1018.5 in /  34486.4 hPa Calm     96 % 0.0 in /  0 mm
08:00 -4.2 °F /  -20.1 °C -4.7 °F /  -20.4 °C 1018.8 in /  34496.6 hPa Calm     96 % 0.0 in /  0 mm
08:15 -4.1 °F /  -20.1 °C -4.7 °F /  -20.4 °C 1018.8 in /  34496.6 hPa Calm     96 % 0.0 in /  0 mm
08:30 -4.1 °F /  -20.1 °C -4.7 °F /  -20.4 °C 1019.2 in /  34510.1 hPa Calm     96 % 0.0 in /  0 mm
08:45 -4.1 °F /  -20.1 °C -4.6 °F /  -20.3 °C 1019.5 in /  34520.3 hPa Calm     96 % 0.0 in /  0 mm
09:00 -4.1 °F /  -20.1 °C -4.6 °F /  -20.3 °C 1019.5 in /  34520.3 hPa Calm     96 % 0.0 in /  0 mm
09:15 -4.0 °F /  -20 °C -4.5 °F /  -20.3 °C 1019.9 in /  34533.8 hPa Calm     96 % 0.0 in /  0 mm
09:30 -4.0 °F /  -20 °C -4.5 °F /  -20.3 °C 1019.9 in /  34533.8 hPa Calm     96 % 0.0 in /  0 mm
09:45 -3.9 °F /  -19.9 °C -4.4 °F /  -20.2 °C 1020.2 in /  34544 hPa Calm     96 % 0.0 in /  0 mm
10:00 -3.7 °F /  -19.8 °C -4.3 °F /  -20.2 °C 1020.5 in /  34554.1 hPa Calm     96 % 0.0 in /  0 mm
10:15 -3.7 °F /  -19.8 °C -4.2 °F /  -20.1 °C 1020.5 in /  34554.1 hPa Calm   3.2 mph /  5.1 km/h 96 % 0.0 in /  0 mm
10:30 -3.6 °F /  -19.8 °C -4.1 °F /  -20.1 °C 1020.9 in /  34567.7 hPa Calm     96 % 0.0 in /  0 mm
10:45 -3.4 °F /  -19.7 °C -3.9 °F /  -19.9 °C 1020.9 in /  34567.7 hPa Calm   3.2 mph /  5.1 km/h 96 % 0.0 in /  0 mm
11:00 -3.2 °F /  -19.6 °C -3.8 °F /  -19.9 °C 1020.9 in /  34567.7 hPa Calm   1.6 mph /  2.6 km/h 96 % 0.0 in /  0 mm
11:15 -3.1 °F /  -19.5 °C -3.7 °F /  -19.8 °C 1021.2 in /  34577.8 hPa Calm     96 % 0.0 in /  0 mm
11:30 -3.0 °F /  -19.4 °C -3.5 °F /  -19.7 °C 1021.2 in /  34577.8 hPa Calm     96 % 0.0 in /  0 mm
11:45 -2.9 °F /  -19.4 °C -3.4 °F /  -19.7 °C 1021.6 in /  34591.4 hPa Calm     96 % 0.0 in /  0 mm
12:00 -2.8 °F /  -19.3 °C -3.3 °F /  -19.6 °C 1021.2 in /  34577.8 hPa Calm     96 % 0.0 in /  0 mm
12:15 -2.7 °F /  -19.3 °C -3.2 °F /  -19.6 °C 1021.2 in /  34577.8 hPa Calm     96 % 0.0 in /  0 mm
12:30 -2.6 °F /  -19.2 °C -3.2 °F /  -19.6 °C 1021.6 in /  34591.4 hPa Calm     96 % 0.0 in /  0 mm
12:45 -2.5 °F /  -19.2 °C -2.9 °F /  -19.4 °C 1021.6 in /  34591.4 hPa Calm   3.2 mph /  5.1 km/h 97 % 0.0 in /  0 mm
13:00 -2.4 °F /  -19.1 °C -2.9 °F /  -19.4 °C 1021.6 in /  34591.4 hPa Calm   3.2 mph /  5.1 km/h 97 % 0.0 in /  0 mm
13:15 -2.3 °F /  -19.1 °C -2.9 °F /  -19.4 °C 1021.9 in /  34601.5 hPa Calm   3.2 mph /  5.1 km/h 96 % 0.0 in /  0 mm
13:30 -2.3 °F /  -19.1 °C -2.8 °F /  -19.3 °C 1021.9 in /  34601.5 hPa Calm   3.2 mph /  5.1 km/h 96 % 0.0 in /  0 mm
13:45 -2.3 °F /  -19.1 °C -2.8 °F /  -19.3 °C 1021.9 in /  34601.5 hPa Calm     96 % 0.0 in /  0 mm
14:00 -2.2 °F /  -19 °C -2.8 °F /  -19.3 °C 1021.9 in /  34601.5 hPa NW 1.6 mph /  2.6 km/h 4.8 mph /  7.7 km/h 96 % 0.0 in /  0 mm
14:15 -2.3 °F /  -19.1 °C -2.8 °F /  -19.3 °C 1021.9 in /  34601.5 hPa NW 1.6 mph /  2.6 km/h 4.8 mph /  7.7 km/h 96 % 0.0 in /  0 mm
14:30 -2.3 °F /  -19.1 °C -2.8 °F /  -19.3 °C 1022.2 in /  34611.7 hPa Calm   4.8 mph /  7.7 km/h 96 % 0.0 in /  0 mm
14:45 -2.3 °F /  -19.1 °C -2.8 °F /  -19.3 °C 1022.2 in /  34611.7 hPa Calm     96 % 0.0 in /  0 mm
15:00 -2.3 °F /  -19.1 °C -2.8 °F /  -19.3 °C 1022.2 in /  34611.7 hPa Calm   4.8 mph /  7.7 km/h 96 % 0.0 in /  0 mm
15:15 -2.3 °F /  -19.1 °C -2.9 °F /  -19.4 °C 1022.6 in /  34625.2 hPa Calm   3.2 mph /  5.1 km/h 96 % 0.0 in /  0 mm
15:30 -2.4 °F /  -19.1 °C -3.0 °F /  -19.4 °C 1022.6 in /  34625.2 hPa WNW 1.6 mph /  2.6 km/h 6.4 mph /  10.3 km/h 96 % 0.0 in /  0 mm
15:45 -2.4 °F /  -19.1 °C -3.0 °F /  -19.4 °C 1022.9 in /  34635.4 hPa Calm     96 % 0.0 in /  0 mm
16:00 -2.5 °F /  -19.2 °C -3.1 °F /  -19.5 °C 1022.9 in /  34635.4 hPa Calm   1.6 mph /  2.6 km/h 96 % 0.0 in /  0 mm
16:15 -2.5 °F /  -19.2 °C -3.1 °F /  -19.5 °C 1023.2 in /  34645.6 hPa Calm   3.2 mph /  5.1 km/h 96 % 0.0 in /  0 mm
16:30 -2.6 °F /  -19.2 °C -3.1 °F /  -19.5 °C 1023.2 in /  34645.6 hPa Calm   1.6 mph /  2.6 km/h 96 % 0.0 in /  0 mm
16:45 -2.6 °F /  -19.2 °C -3.1 °F /  -19.5 °C 1023.6 in /  34659.1 hPa Calm   3.2 mph /  5.1 km/h 96 % 0.0 in /  0 mm
17:00 -2.7 °F /  -19.3 °C -3.2 °F /  -19.6 °C 1023.6 in /  34659.1 hPa NW 1.6 mph /  2.6 km/h 6.4 mph /  10.3 km/h 96 % 0.0 in /  0 mm
17:15 -2.8 °F /  -19.3 °C -3.4 °F /  -19.7 °C 1023.6 in /  34659.1 hPa Calm   4.8 mph /  7.7 km/h 96 % 0.0 in /  0 mm
17:30 -2.9 °F /  -19.4 °C -3.4 °F /  -19.7 °C 1023.6 in /  34659.1 hPa Calm   3.2 mph /  5.1 km/h 96 % 0.0 in /  0 mm
17:45 -2.9 °F /  -19.4 °C -3.5 °F /  -19.7 °C 1023.9 in /  34669.3 hPa Calm   4.8 mph /  7.7 km/h 96 % 0.0 in /  0 mm
23:00 -3.9 °F /  -19.9 °C -4.6 °F /  -20.3 °C 1024.9 in /  34703.1 hPa Calm   1.6 mph /  2.6 km/h 95 % 0.0 in /  0 mm
23:45 -4.3 °F /  -20.2 °C -5.0 °F /  -20.6 °C 1025.3 in /  34716.7 hPa Calm   4.8 mph /  7.7 km/h 95 % 0.0 in /  0 mm
Esan sääasema
Terveisin Weather Underground - 2.75 mb

Alkuperäinen skripti  Jim McMurry - jmcmurry@mwt.net Sovitettu myös templatelle  Wim van der Kuil - Leuven-Template.eu

Laitteet joita käytämme:

Sääasema
Davis VP2

Sääasemaohjelma
Cumulus

Sääaseman tietokone
Asus EeePC

Palveluntarjoaja
Suncomet

Davis VP2

Cumulus

Asus EeePC

Suncomet